Flight Track Log - Related Links

Times and Time Zones

All times are in EDT time to prevent confusion due to time zone crossing. See the SWA1586 flight status page for this flight to view local times or setup timezone preferences in your user account.

Time Position Orientation Groundspeed Altitude Reporting Facility
EDT Latitude Longitude Course Direction KTS MPH feet Rate Location/Type
Mon 09:49:05 PM 40.7719 -111.9997 180° South 147 169 5,500  Level Salt Lake Center
Mon 09:49:24 PM 40.7675 -111.9997 180° South 154 177 5,700 1,116 Climbing Salt Lake Center
Mon 09:49:48 PM 40.7564 -112.0417 251° West 202 232 6,300 1,742 Climbing Salt Lake Center
Mon 09:50:26 PM 40.7642 -112.0767 286° West 233 268 7,500 2,545 Climbing Salt Lake Center
Mon 09:51:27 PM 40.8175 -112.1456 316° Northwest 269 310 10,500 3,122 Climbing Salt Lake Center
Mon 09:52:29 PM 40.9083 -112.1311 North 346 398 13,900 3,122 Climbing Salt Lake Center
Mon 09:53:30 PM 40.9131 -112.0053 87° East 351 404 16,900 2,927 Climbing Salt Lake Center
Mon 09:54:32 PM 40.9175 -111.8731 87° East 367 422 19,900 2,439 Climbing Salt Lake Center
Mon 09:56:37 PM 40.9236 -111.5969 88° East 395 455 24,500 2,348 Climbing Salt Lake Center
Mon 09:57:36 PM 40.9114 -111.4208 95° East 405 466 27,100 2,213 Climbing Salt Lake Center
Mon 09:58:39 PM 40.8944 -111.2678 98° East 422 486 29,000 1,968 Climbing Salt Lake Center
Mon 10:00:00 PM 40.8667 -111.0736 90° East  Level FlightAware Approximate
Mon 10:00:42 PM 40.8572 -110.9600 90° East 428 493 33,200  Level Salt Lake Center
Mon 10:01:43 PM 40.8392 -110.8097 99° East 420 483 34,900 1,317 Climbing Salt Lake Center
Mon 10:02:45 PM 40.8200 -110.6567 99° East 422 486 35,900 1,024 Climbing Salt Lake Center
Mon 10:03:46 PM 40.7997 -110.4839 99° East 434 499 37,000 1,108 Climbing Salt Lake Center
Mon 10:05:22 PM 40.7658 -110.2269 100° East 441 507 38,800 976 Climbing Denver Center
Mon 10:05:49 PM 40.7553 -110.1492 100° East 441 507 39,000 135 Climbing Salt Lake Center
Mon 10:06:51 PM 40.7378 -109.9944 98° East 446 513 39,000  Level Salt Lake Center
Mon 10:07:52 PM 40.7267 -109.8131 95° East 445 512 39,000  Level Salt Lake Center
Mon 10:08:54 PM 40.7150 -109.6586 96° East 442 509 39,000  Level Salt Lake Center
Mon 10:09:55 PM 40.7036 -109.5036 95° East 442 509 39,000  Level Salt Lake Center
Mon 10:10:57 PM 40.6903 -109.3244 96° East 442 509 39,000  Level Salt Lake Center
Mon 10:11:58 PM 40.6772 -109.1522 96° East 443 510 39,000  Level Salt Lake Center
Mon 10:13:00 PM 40.6656 -108.9978 96° East 445 512 39,000  Level Salt Lake Center
Mon 10:14:01 PM 40.6528 -108.8422 96° East 448 516 39,000  Level Salt Lake Center
Mon 10:14:38 PM 40.6439 -108.7233 96° East 448 516 39,000  Level Denver Center
Mon 10:15:40 PM 40.6311 -108.5667 96° East 449 517 39,000  Level Denver Center
Mon 10:16:04 PM 40.6258 -108.5025 96° East 452 520 39,000  Level Salt Lake Center
Mon 10:16:42 PM 40.6153 -108.3811 96° East 455 524 39,000  Level Denver Center
Mon 10:17:06 PM 40.6097 -108.3192 97° East 453 521 39,000  Level Salt Lake Center
Mon 10:18:07 PM 40.5958 -108.1619 97° East 455 524 39,000  Level Salt Lake Center
Mon 10:18:45 PM 40.5861 -108.0381 96° East 455 524 39,000  Level Denver Center
Mon 10:19:47 PM 40.5719 -107.8803 97° East 454 522 39,000  Level Denver Center
Mon 10:20:49 PM 40.5583 -107.7228 96° East 453 521 39,000  Level Denver Center
Mon 10:21:50 PM 40.5411 -107.5386 97° East 454 522 39,000  Level Denver Center
Mon 10:22:52 PM 40.5275 -107.3817 96° East 452 520 39,000  Level Denver Center
Mon 10:23:53 PM 40.5147 -107.2058 95° East 451 519 39,000 -146 Level Denver Center
Mon 10:24:55 PM 40.5064 -107.0394 94° East 453 521 38,700 -634 Descending Denver Center
Mon 10:25:56 PM 40.4972 -106.8739 94° East 452 520 37,700 -976 Descending Denver Center
Mon 10:26:58 PM 40.4875 -106.7103 94° East 449 517 36,700 -927 Descending Denver Center
Mon 10:27:59 PM 40.4781 -106.5436 94° East 453 521 35,800 -1,561 Descending Denver Center
Mon 10:29:01 PM 40.4667 -106.3608 95° East 445 512 33,500 -1,951 Descending Denver Center
Mon 10:30:02 PM 40.4589 -106.2075 94° East 441 507 31,800 -1,854 Descending Denver Center
Mon 10:31:04 PM 40.4492 -106.0556 95° East 440 506 29,700 -2,146 Descending Denver Center
Mon 10:32:05 PM 40.4314 -105.9011 99° East 423 487 27,400 -2,390 Descending Denver Center
Mon 10:33:07 PM 40.4028 -105.7264 102° East 416 479 24,800 -2,049 Descending Denver Center
Mon 10:34:08 PM 40.3794 -105.5839 102° East 401 461 23,200 -1,463 Descending Denver Center
Mon 10:35:10 PM 40.3583 -105.4489 102° East 387 445 21,800 -1,463 Descending Denver Center
Mon 10:36:11 PM 40.3006 -105.3475 127° Southeast 354 407 20,200 -1,659 Descending Denver Center
Mon 10:37:13 PM 40.2356 -105.2461 130° Southeast 340 391 18,400 -1,561 Descending Denver Center
Mon 10:38:14 PM 40.1903 -105.1758 130° Southeast 331 381 17,000 -689 Descending Denver Center
Mon 10:39:15 PM 40.1225 -105.0700 130° Southeast 304 350 17,000 -439 Level Denver Center
Mon 10:40:17 PM 40.0678 -104.9844 130° Southeast 285 328 16,100 -1,122 Descending Denver Center
Mon 10:41:18 PM 40.0172 -104.9067 130° Southeast 282 325 14,700 -1,317 Descending Denver Center
Mon 10:42:20 PM 39.9686 -104.8308 130° Southeast 275 316 13,400 -1,122 Descending Denver Center
Mon 10:43:21 PM 39.9011 -104.8061 164° South 259 298 12,400 -885 Descending Denver Center
Mon 10:44:22 PM 39.8269 -104.8081 181° South 249 287 11,600 -683 Descending Denver Center
Mon 10:45:24 PM 39.7628 -104.8097 181° South 233 268 11,000 -780 Descending Denver Center
Mon 10:46:25 PM 39.6914 -104.8108 181° South 235 270 10,000 -851 Descending Denver Center
Mon 10:47:38 PM 39.6256 -104.8133 182° South 242 278 9,100 -408 Descending Denver Center
Mon 10:48:52 PM 39.5489 -104.8161 182° South 227 261 9,000 -44 Descending Denver Center
Mon 10:49:54 PM 39.5425 -104.7572 98° East 224 258 9,000 -98 Level Denver Center
Mon 10:50:55 PM 39.5953 -104.7183 30° Northeast 219 252 8,800 -295 Descending Denver Center
Mon 10:51:56 PM 39.6517 -104.6753 30° Northeast 218 251 8,400 -683 Descending Denver Center
Mon 10:52:58 PM 39.7078 -104.6622 10° North 207 238 7,400 -756 Descending Denver Center
Mon 10:54:11 PM 39.7633 -104.6617 360° North 201 231 6,700 -806 Descending Denver Center
Mon 10:55:12 PM 39.8189 -104.6606 North 163 188 5,600 -1,082 Descending Denver Center
Mon 10:57:00 PM 39.8500 -104.6667 North  Level FlightAware Approximate
Mon 11:04:00 PM 39.8617 -104.6732 North  Level Estimated
Mon 11:05:00 PM 39.8617 -104.6732 North  Level Estimated
Mon 11:06:00 PM 39.8617 -104.6732 North  Level Estimated

Login

Don't have an account? Register now (free) for customized features, flight alerts, and more!